Time;durP1;ratioP1;P1;durP2;ratioP2;P2;SDS_P1;SDS_P2;PMS_P1;PMS_P2;Temp;Humidity;BMP_temperature;BMP_pressure;BME280_temperature;BME280_humidity;BME280_pressure;Samples;Min_cycle;Max_cycle;Signal;HPM_P1;HPM_P2
2023/08/22 00:00:41;;;;;;;9.57;4.72;;;17.20;99.90;;;;;;5048314;28;20045;-81
2023/08/22 00:03:06;;;;;;;5.22;4.60;;;17.10;99.90;;;;;;5032598;28;20099;-81
2023/08/22 00:05:32;;;;;;;5.40;4.47;;;17.10;99.90;;;;;;5032459;28;20425;-81
2023/08/22 00:08:04;;;;;;;7.07;4.30;;;17.10;99.90;;;;;;5032419;28;20041;-81
2023/08/22 00:10:33;;;;;;;6.47;4.60;;;17.10;99.90;;;;;;5049244;28;20134;-81
2023/08/22 00:12:59;;;;;;;6.82;4.30;;;17.20;99.90;;;;;;5039573;28;20040;-81
2023/08/22 00:15:25;;;;;;;6.93;5.30;;;17.20;99.90;;;;;;5033532;28;20049;-81
2023/08/22 00:17:51;;;;;;;6.38;5.05;;;17.20;99.90;;;;;;5033996;28;20132;-80
2023/08/22 00:20:17;;;;;;;8.20;5.60;;;17.20;99.90;;;;;;5032551;28;20706;-81
2023/08/22 00:22:43;;;;;;;7.53;4.88;;;17.20;99.90;;;;;;5049051;28;20095;-81
2023/08/22 00:25:11;;;;;;;8.70;5.13;;;17.20;99.90;;;;;;5012007;28;20068;-81
2023/08/22 00:27:38;;;;;;;6.32;5.10;;;17.20;99.90;;;;;;5048050;28;20037;-81
2023/08/22 00:30:04;;;;;;;6.25;4.53;;;17.20;99.90;;;;;;5048883;28;20074;-81
2023/08/22 00:32:31;;;;;;;8.20;5.07;;;17.20;99.90;;;;;;5049104;28;20045;-81
2023/08/22 00:34:57;;;;;;;7.43;5.00;;;17.30;99.90;;;;;;5057426;28;20083;-81
2023/08/22 00:37:23;;;;;;;6.35;4.90;;;17.20;99.90;;;;;;5039569;28;20068;-81
2023/08/22 00:39:49;;;;;;;7.10;5.53;;;17.20;99.90;;;;;;5046854;28;20044;-80
2023/08/22 00:42:14;;;;;;;8.13;5.20;;;17.20;99.90;;;;;;5032259;28;20098;-80
2023/08/22 00:44:40;;;;;;;8.60;5.70;;;17.20;99.90;;;;;;5019537;28;20131;-81
2023/08/22 00:47:07;;;;;;;8.10;5.70;;;17.10;99.90;;;;;;5035605;28;20056;-81
2023/08/22 00:49:33;;;;;;;8.20;5.32;;;17.10;99.90;;;;;;5034117;28;20045;-81
2023/08/22 00:52:01;;;;;;;7.18;5.10;;;17.10;99.90;;;;;;5006343;28;20075;-81
2023/08/22 00:54:30;;;;;;;7.03;4.95;;;17.00;99.90;;;;;;5036323;28;20044;-81
2023/08/22 00:56:57;;;;;;;8.13;5.20;;;17.00;99.90;;;;;;5035692;28;20045;-81
2023/08/22 00:59:24;;;;;;;7.50;5.05;;;17.00;99.90;;;;;;5055298;28;20059;-81
2023/08/22 01:01:50;;;;;;;7.43;4.95;;;17.00;99.90;;;;;;5052343;28;20041;-81
2023/08/22 01:04:16;;;;;;;7.68;4.93;;;17.00;99.90;;;;;;5019309;28;20044;-81
2023/08/22 01:06:49;;;;;;;7.72;4.80;;;17.00;99.90;;;;;;5016825;28;20038;-81
2023/08/22 01:09:26;;;;;;;6.35;4.65;;;17.00;99.90;;;;;;5033860;28;20203;-81
2023/08/22 01:11:56;;;;;;;7.95;5.13;;;17.10;99.90;;;;;;5055683;28;20418;-81
2023/08/22 01:14:26;;;;;;;9.15;4.80;;;17.10;99.90;;;;;;5056030;28;20091;-81
2023/08/22 01:16:52;;;;;;;7.95;4.63;;;17.00;99.90;;;;;;5051599;28;20071;-81
2023/08/22 01:19:18;;;;;;;7.07;4.55;;;17.00;99.90;;;;;;5036358;28;20056;-80
2023/08/22 01:21:54;;;;;;;8.52;4.82;;;17.00;99.90;;;;;;5035330;28;20472;-81
2023/08/22 01:24:19;;;;;;;6.13;4.72;;;17.10;99.90;;;;;;5027683;28;20044;-81
2023/08/22 01:26:46;;;;;;;6.68;4.60;;;17.00;99.90;;;;;;5035051;28;20480;-81
2023/08/22 01:29:20;;;;;;;6.57;4.65;;;17.00;99.90;;;;;;5035400;28;20497;-81
2023/08/22 01:32:00;;;;;;;5.88;4.32;;;17.00;99.90;;;;;;5035360;28;20047;-81
2023/08/22 01:34:29;;;;;;;6.88;4.57;;;17.00;99.90;;;;;;5054079;28;20045;-81
2023/08/22 01:36:56;;;;;;;7.60;4.45;;;16.90;99.90;;;;;;5039122;28;20465;-81
2023/08/22 01:39:27;;;;;;;8.13;4.50;;;16.90;99.90;;;;;;5023488;28;20037;-81
2023/08/22 01:41:55;;;;;;;7.32;4.47;;;16.90;99.90;;;;;;5053943;28;20033;-81
2023/08/22 01:44:21;;;;;;;8.32;4.88;;;16.90;99.90;;;;;;5038926;28;20068;-81
2023/08/22 01:46:46;;;;;;;7.43;4.78;;;16.80;99.90;;;;;;5035023;28;20068;-81
2023/08/22 01:49:12;;;;;;;7.43;4.03;;;16.90;99.90;;;;;;5018796;28;20033;-81
2023/08/22 01:51:38;;;;;;;7.28;5.15;;;16.90;99.90;;;;;;5034964;28;20484;-81
2023/08/22 01:54:04;;;;;;;6.45;5.00;;;16.90;99.90;;;;;;5044441;28;20381;-81
2023/08/22 01:56:30;;;;;;;6.95;5.10;;;16.80;99.90;;;;;;5044295;28;20090;-81
2023/08/22 01:58:55;;;;;;;6.05;4.65;;;16.80;99.90;;;;;;5034916;28;20040;-81
2023/08/22 02:01:23;;;;;;;7.28;4.82;;;16.80;99.90;;;;;;5024565;28;20149;-81
2023/08/22 02:03:49;;;;;;;6.03;5.07;;;16.80;99.90;;;;;;5034220;28;20090;-80
2023/08/22 02:06:15;;;;;;;7.00;4.88;;;16.80;99.90;;;;;;5062221;28;20044;-81
2023/08/22 02:08:40;;;;;;;7.28;5.60;;;16.80;99.90;;;;;;5034127;28;20492;-81
2023/08/22 02:11:06;;;;;;;7.38;5.35;;;16.90;99.90;;;;;;5018764;28;20132;-81
2023/08/22 02:13:32;;;;;;;10.45;5.95;;;16.80;99.90;;;;;;5051244;28;20048;-82
2023/08/22 02:15:58;;;;;;;5.65;4.63;;;16.80;99.90;;;;;;5051085;28;20060;-81
2023/08/22 02:18:24;;;;;;;7.80;5.20;;;16.80;99.90;;;;;;5034315;28;20053;-81
2023/08/22 02:20:55;;;;;;;5.70;4.70;;;16.80;99.90;;;;;;5034555;28;20630;-81
2023/08/22 02:23:21;;;;;;;7.32;4.45;;;16.80;99.90;;;;;;5034307;28;20047;-81
2023/08/22 02:25:46;;;;;;;10.00;5.13;;;16.80;99.90;;;;;;5019643;28;20037;-81
2023/08/22 02:28:13;;;;;;;5.40;4.90;;;16.70;99.90;;;;;;5034161;28;20044;-81
2023/08/22 02:30:38;;;;;;;8.30;5.10;;;16.70;99.90;;;;;;5038536;28;20045;-81
2023/08/22 02:33:05;;;;;;;7.10;5.45;;;16.70;99.90;;;;;;5033813;28;20052;-81
2023/08/22 02:35:31;;;;;;;8.18;5.00;;;16.70;99.90;;;;;;5034341;28;20049;-81
2023/08/22 02:37:57;;;;;;;7.65;5.05;;;16.70;99.90;;;;;;5051045;28;20148;-81
2023/08/22 02:40:23;;;;;;;7.95;5.72;;;16.70;99.90;;;;;;5034078;28;20535;-81
2023/08/22 02:42:48;;;;;;;7.78;6.30;;;16.70;99.90;;;;;;5055746;28;20033;-81
2023/08/22 02:45:14;;;;;;;8.35;6.40;;;16.70;99.90;;;;;;5058228;28;20068;-80
2023/08/22 02:47:41;;;;;;;10.57;6.88;;;16.70;99.90;;;;;;5033238;28;20045;-81
2023/08/22 02:50:08;;;;;;;7.40;6.68;;;16.70;99.90;;;;;;5040624;28;20064;-81
2023/08/22 02:52:33;;;;;;;13.65;6.95;;;16.70;99.90;;;;;;5017326;28;20072;-81
2023/08/22 02:54:59;;;;;;;8.02;6.22;;;16.60;99.90;;;;;;5033921;28;20080;-81
2023/08/22 02:57:25;;;;;;;9.93;6.45;;;16.60;99.90;;;;;;5044512;28;20094;-80
2023/08/22 02:59:51;;;;;;;11.93;6.95;;;16.60;99.90;;;;;;5051090;28;20396;-81
2023/08/22 03:02:16;;;;;;;8.82;6.57;;;16.60;99.90;;;;;;5053439;28;20048;-81
2023/08/22 03:04:43;;;;;;;8.65;6.65;;;16.50;99.90;;;;;;5017719;28;20128;-80
2023/08/22 03:07:09;;;;;;;7.03;6.25;;;16.60;99.90;;;;;;5023689;28;20589;-81
2023/08/22 03:09:39;;;;;;;8.88;6.60;;;16.50;99.90;;;;;;5050046;28;20123;-81
2023/08/22 03:12:05;;;;;;;12.10;6.65;;;16.60;99.90;;;;;;5047414;28;20045;-80
2023/08/22 03:14:31;;;;;;;9.27;6.68;;;16.60;99.90;;;;;;5033923;28;20097;-81
2023/08/22 03:16:56;;;;;;;8.50;7.50;;;16.60;99.90;;;;;;5033146;28;20506;-81
2023/08/22 03:19:22;;;;;;;9.32;6.97;;;16.60;99.90;;;;;;5013657;28;20045;-81
2023/08/22 03:21:48;;;;;;;12.07;6.65;;;16.60;99.90;;;;;;5031036;28;20040;-81
2023/08/22 03:24:13;;;;;;;7.43;6.18;;;16.60;99.90;;;;;;4997515;28;20121;-81
2023/08/22 03:26:39;;;;;;;7.60;5.78;;;16.60;99.90;;;;;;5054215;28;20037;-81
2023/08/22 03:29:05;;;;;;;8.05;6.80;;;16.60;99.90;;;;;;5016810;28;20047;-81
2023/08/22 03:31:30;;;;;;;7.53;6.28;;;16.60;99.90;;;;;;5016575;28;20412;-81
2023/08/22 03:33:56;;;;;;;9.23;6.75;;;16.50;99.90;;;;;;5039139;28;20051;-81
2023/08/22 03:36:22;;;;;;;9.07;6.10;;;16.50;99.90;;;;;;5054548;28;20044;-81
2023/08/22 03:38:51;;;;;;;7.90;6.05;;;16.50;99.90;;;;;;5049783;28;20029;-81
2023/08/22 03:41:17;;;;;;;7.93;6.97;;;16.50;99.90;;;;;;5033877;28;20119;-81
2023/08/22 03:43:43;;;;;;;9.80;6.65;;;16.50;99.90;;;;;;5049746;28;20582;-81
2023/08/22 03:46:09;;;;;;;9.75;6.97;;;16.40;99.90;;;;;;5033065;28;20076;-81
2023/08/22 03:48:35;;;;;;;11.10;6.47;;;16.40;99.90;;;;;;5041534;28;20052;-81
2023/08/22 03:51:05;;;;;;;7.82;5.95;;;16.40;99.90;;;;;;5038490;28;20123;-81
2023/08/22 03:53:33;;;;;;;8.02;5.97;;;16.40;99.90;;;;;;5032734;28;20041;-81
2023/08/22 03:55:59;;;;;;;11.35;6.38;;;16.30;99.90;;;;;;5033294;28;20037;-81
2023/08/22 03:58:24;;;;;;;9.45;6.20;;;16.20;99.90;;;;;;5049645;28;20041;-81
2023/08/22 04:00:50;;;;;;;7.40;6.35;;;16.20;99.90;;;;;;5025595;28;20040;-81
2023/08/22 04:03:16;;;;;;;7.30;5.53;;;16.20;99.90;;;;;;5033294;28;20067;-81
2023/08/22 04:05:44;;;;;;;9.63;6.25;;;16.10;99.90;;;;;;5009260;28;20040;-81
2023/08/22 04:08:10;;;;;;;7.28;5.63;;;16.10;99.90;;;;;;5042910;28;20040;-81
2023/08/22 04:10:35;;;;;;;6.53;5.35;;;16.00;99.90;;;;;;5032848;28;20065;-81
2023/08/22 04:13:01;;;;;;;9.13;5.00;;;15.90;99.90;;;;;;5016628;28;20699;-81
2023/08/22 04:15:27;;;;;;;6.82;5.88;;;15.90;99.90;;;;;;5041505;28;20041;-81
2023/08/22 04:17:52;;;;;;;6.60;5.55;;;15.80;99.90;;;;;;5035195;28;20072;-81
2023/08/22 04:20:18;;;;;;;6.70;5.45;;;15.80;99.90;;;;;;5032489;28;20059;-81
2023/08/22 04:22:44;;;;;;;6.75;5.30;;;15.80;99.90;;;;;;5036288;28;20037;-81
2023/08/22 04:25:10;;;;;;;9.77;5.47;;;15.80;99.90;;;;;;5052714;28;20400;-81
2023/08/22 04:27:37;;;;;;;6.03;5.00;;;15.70;99.90;;;;;;5037062;28;20396;-81
2023/08/22 04:30:04;;;;;;;6.57;5.68;;;15.70;99.90;;;;;;5019407;28;20515;-80
2023/08/22 04:32:30;;;;;;;7.70;5.43;;;15.70;99.90;;;;;;5035738;28;20041;-80
2023/08/22 04:34:55;;;;;;;5.60;4.22;;;15.60;99.90;;;;;;5052453;28;20106;-81
2023/08/22 04:37:21;;;;;;;5.90;4.70;;;15.60;99.90;;;;;;5019301;28;20036;-81
2023/08/22 04:39:47;;;;;;;8.52;5.30;;;15.50;99.90;;;;;;5036658;28;20765;-80
2023/08/22 04:42:13;;;;;;;8.48;5.65;;;15.50;99.90;;;;;;5038053;28;20033;-81
2023/08/22 04:44:38;;;;;;;8.57;5.50;;;15.50;99.90;;;;;;5042327;28;20487;-81
2023/08/22 04:47:04;;;;;;;8.25;6.25;;;15.50;99.90;;;;;;5054222;28;20040;-81
2023/08/22 04:49:30;;;;;;;6.05;4.22;;;15.50;99.90;;;;;;5053003;28;20079;-81
2023/08/22 04:51:55;;;;;;;5.45;4.95;;;15.50;99.90;;;;;;5051629;28;20131;-81
2023/08/22 04:54:21;;;;;;;6.30;4.93;;;15.40;99.90;;;;;;5026224;28;20705;-80
2023/08/22 04:56:47;;;;;;;6.45;5.03;;;15.40;99.90;;;;;;5027589;28;20044;-81
2023/08/22 04:59:13;;;;;;;8.05;5.68;;;15.40;99.90;;;;;;5034734;28;20167;-81
2023/08/22 05:01:38;;;;;;;7.30;5.90;;;15.40;99.90;;;;;;5057599;28;20076;-81
2023/08/22 05:04:04;;;;;;;6.28;5.25;;;15.40;99.90;;;;;;5040947;28;20039;-81
2023/08/22 05:06:30;;;;;;;7.13;5.40;;;15.30;99.90;;;;;;5022266;28;20047;-81
2023/08/22 05:08:55;;;;;;;7.93;5.85;;;15.30;99.90;;;;;;5022220;28;20177;-81
2023/08/22 05:11:21;;;;;;;6.30;4.90;;;15.40;99.90;;;;;;5036000;28;20395;-81
2023/08/22 05:13:47;;;;;;;7.47;4.93;;;15.40;99.90;;;;;;5013622;28;20048;-81
2023/08/22 05:16:12;;;;;;;8.15;6.03;;;15.40;99.90;;;;;;5064003;28;20071;-81
2023/08/22 05:18:38;;;;;;;8.45;5.60;;;15.40;99.90;;;;;;5036703;28;20499;-81
2023/08/22 05:21:04;;;;;;;8.95;5.47;;;15.50;99.90;;;;;;5035620;28;20511;-81
2023/08/22 05:23:30;;;;;;;10.27;5.80;;;15.50;99.90;;;;;;5024396;28;20041;-81
2023/08/22 05:25:56;;;;;;;9.07;5.90;;;15.50;99.90;;;;;;5022258;28;20047;-81
2023/08/22 05:28:22;;;;;;;8.75;6.07;;;15.50;99.90;;;;;;5035222;28;20404;-81
2023/08/22 05:30:47;;;;;;;8.75;6.50;;;15.60;99.90;;;;;;5034696;28;20083;-80
2023/08/22 05:33:13;;;;;;;10.60;6.82;;;15.60;99.90;;;;;;5017016;28;20045;-81
2023/08/22 05:35:39;;;;;;;9.05;7.13;;;15.60;99.90;;;;;;5033271;28;20051;-81
2023/08/22 05:38:04;;;;;;;13.32;10.00;;;15.70;99.90;;;;;;5018950;28;20045;-81
2023/08/22 05:40:30;;;;;;;7.82;6.13;;;15.70;99.90;;;;;;5035733;28;20037;-81
2023/08/22 05:42:56;;;;;;;10.80;6.68;;;15.70;99.90;;;;;;5043664;28;20481;-80
2023/08/22 05:45:22;;;;;;;11.43;7.60;;;15.80;99.90;;;;;;5032785;28;20047;-80
2023/08/22 05:47:47;;;;;;;13.57;9.52;;;15.90;99.90;;;;;;5051785;28;20144;-80
2023/08/22 05:50:13;;;;;;;13.55;9.60;;;16.00;99.90;;;;;;5034818;28;20044;-80
2023/08/22 05:52:39;;;;;;;12.23;9.63;;;16.00;99.90;;;;;;5034682;28;20036;-81
2023/08/22 05:55:06;;;;;;;15.25;10.98;;;16.10;99.90;;;;;;5058785;28;20032;-81
2023/08/22 05:57:32;;;;;;;15.40;13.45;;;16.20;99.90;;;;;;5055568;28;20076;-81
2023/08/22 05:59:59;;;;;;;18.08;13.73;;;16.30;99.90;;;;;;5043527;28;20044;-81
2023/08/22 06:02:25;;;;;;;19.75;14.80;;;16.50;99.90;;;;;;5061259;28;20041;-81
2023/08/22 06:04:51;;;;;;;19.38;14.70;;;16.60;99.90;;;;;;5039636;28;20040;-81
2023/08/22 06:07:17;;;;;;;18.92;15.13;;;16.80;99.90;;;;;;5038817;28;20052;-81
2023/08/22 06:09:43;;;;;;;18.95;15.23;;;16.90;99.90;;;;;;5037288;28;20040;-81
2023/08/22 06:12:09;;;;;;;20.48;15.13;;;17.00;99.90;;;;;;5022896;28;20068;-81
2023/08/22 06:14:35;;;;;;;21.90;16.17;;;17.20;99.90;;;;;;5058029;28;20043;-82
2023/08/22 06:17:00;;;;;;;19.40;15.50;;;17.30;99.90;;;;;;5025310;28;20049;-81
2023/08/22 06:19:26;;;;;;;18.00;15.98;;;17.50;99.90;;;;;;5046900;28;20036;-81
2023/08/22 06:21:53;;;;;;;18.98;15.02;;;17.60;99.90;;;;;;5034177;28;20037;-81
2023/08/22 06:24:18;;;;;;;18.88;14.55;;;17.80;99.90;;;;;;5051439;28;20047;-81
2023/08/22 06:26:44;;;;;;;21.90;15.13;;;17.90;99.90;;;;;;5017142;28;20037;-81
2023/08/22 06:29:10;;;;;;;19.15;14.73;;;18.00;99.90;;;;;;5034706;28;20040;-81
2023/08/22 06:31:36;;;;;;;23.08;14.32;;;18.00;99.90;;;;;;5034710;28;20455;-81
2023/08/22 06:34:01;;;;;;;19.02;13.85;;;18.10;99.90;;;;;;5018514;28;20144;-81
2023/08/22 06:36:27;;;;;;;25.80;14.65;;;18.10;99.90;;;;;;5038552;28;20040;-80
2023/08/22 06:38:53;;;;;;;17.55;13.30;;;18.10;99.90;;;;;;5056007;28;20048;-81
2023/08/22 06:41:19;;;;;;;17.33;13.65;;;18.10;99.90;;;;;;5029543;28;20162;-81
2023/08/22 06:43:46;;;;;;;16.77;13.70;;;18.20;99.90;;;;;;5050852;28;20395;-81
2023/08/22 06:46:12;;;;;;;18.75;13.65;;;18.20;99.90;;;;;;5050598;28;20055;-80
2023/08/22 06:48:38;;;;;;;22.52;14.20;;;18.20;99.90;;;;;;5017460;28;20119;-81
2023/08/22 06:51:03;;;;;;;15.27;13.57;;;18.20;99.90;;;;;;5017992;28;20068;-80
2023/08/22 06:53:29;;;;;;;20.17;13.73;;;18.20;99.90;;;;;;5033881;28;20129;-80
2023/08/22 06:55:55;;;;;;;20.50;14.25;;;18.30;99.90;;;;;;5033939;28;20033;-81
2023/08/22 06:58:21;;;;;;;17.70;13.32;;;18.30;99.90;;;;;;5017895;28;20035;-82
2023/08/22 07:00:48;;;;;;;17.98;13.68;;;18.40;99.90;;;;;;5039065;28;20427;-81
2023/08/22 07:03:14;;;;;;;16.75;12.45;;;18.60;99.90;;;;;;5056599;28;20123;-81
2023/08/22 07:05:40;;;;;;;18.08;12.43;;;18.70;99.90;;;;;;5017635;28;20125;-80
2023/08/22 07:08:06;;;;;;;17.02;11.68;;;18.90;99.90;;;;;;5051197;28;20211;-81
2023/08/22 07:10:32;;;;;;;14.55;11.25;;;19.00;99.90;;;;;;5026467;28;20033;-82
2023/08/22 07:12:57;;;;;;;15.02;10.68;;;19.10;99.90;;;;;;5037736;28;20041;-80
2023/08/22 07:15:23;;;;;;;15.48;10.40;;;19.20;99.90;;;;;;4992167;28;20409;-80
2023/08/22 07:17:49;;;;;;;12.93;9.68;;;19.40;99.90;;;;;;5021069;28;20080;-82
2023/08/22 07:20:14;;;;;;;14.90;8.38;;;19.50;99.90;;;;;;5042196;28;20045;-81
2023/08/22 07:22:40;;;;;;;10.82;8.30;;;19.60;99.90;;;;;;5039742;28;20071;-81
2023/08/22 07:25:06;;;;;;;13.90;8.35;;;19.60;99.90;;;;;;5050516;28;20041;-81
2023/08/22 07:27:32;;;;;;;10.85;7.80;;;19.60;99.90;;;;;;5020406;28;20126;-81
2023/08/22 07:29:58;;;;;;;10.90;7.50;;;19.60;99.90;;;;;;5053027;28;20052;-82
2023/08/22 07:32:24;;;;;;;9.57;6.28;;;19.60;99.90;;;;;;5028382;28;20041;-80
2023/08/22 07:34:49;;;;;;;9.60;6.63;;;19.70;99.90;;;;;;5027278;28;20041;-81
2023/08/22 07:37:16;;;;;;;8.63;5.82;;;19.80;99.90;;;;;;5035542;28;20041;-81
2023/08/22 07:39:42;;;;;;;8.80;5.80;;;19.90;99.90;;;;;;5040091;28;20048;-81
2023/08/22 07:42:08;;;;;;;8.02;5.47;;;20.10;99.90;;;;;;5049282;28;20040;-81
2023/08/22 07:44:34;;;;;;;9.13;6.63;;;20.20;99.90;;;;;;5049976;28;20400;-81
2023/08/22 07:47:00;;;;;;;10.10;6.10;;;20.30;99.90;;;;;;5033740;28;20036;-81
2023/08/22 07:49:26;;;;;;;6.55;4.78;;;20.30;99.90;;;;;;5033637;28;20345;-82
2023/08/22 07:51:52;;;;;;;9.18;5.70;;;20.30;99.90;;;;;;5024371;28;21545;-81
2023/08/22 07:54:17;;;;;;;6.82;5.10;;;20.40;99.90;;;;;;5023125;28;20041;-81
2023/08/22 07:56:44;;;;;;;8.00;5.43;;;20.50;99.90;;;;;;5051212;28;20051;-82
2023/08/22 07:59:12;;;;;;;9.73;5.25;;;20.50;99.90;;;;;;5034625;28;20045;-81
2023/08/22 08:01:37;;;;;;;8.02;6.00;;;20.50;99.90;;;;;;5035431;28;20397;-81
2023/08/22 08:04:03;;;;;;;11.90;5.65;;;20.60;99.90;;;;;;5058281;28;20033;-81
2023/08/22 08:06:36;;;;;;;7.55;5.13;;;20.70;99.90;;;;;;5017129;28;20060;-83
2023/08/22 08:09:04;;;;;;;9.15;4.75;;;20.80;99.90;;;;;;5050162;28;20450;-82
2023/08/22 08:11:31;;;;;;;8.90;4.45;;;20.80;99.90;;;;;;5033219;28;20072;-81
2023/08/22 08:13:57;;;;;;;7.40;4.72;;;20.80;99.90;;;;;;5028109;28;20139;-81
2023/08/22 08:16:23;;;;;;;8.30;4.32;;;20.90;99.90;;;;;;5029496;28;20327;-81
2023/08/22 08:18:50;;;;;;;7.00;3.72;;;20.90;99.90;;;;;;5013112;28;20060;-81
2023/08/22 08:21:16;;;;;;;7.50;3.42;;;21.00;99.90;;;;;;5046909;28;20084;-81
2023/08/22 08:23:44;;;;;;;4.55;3.22;;;21.00;99.90;;;;;;5016688;28;20064;-82
2023/08/22 08:26:10;;;;;;;6.57;3.00;;;21.00;99.90;;;;;;5036968;28;20052;-82
2023/08/22 08:28:36;;;;;;;4.68;3.03;;;21.10;99.90;;;;;;5033147;28;20041;-82
2023/08/22 08:31:02;;;;;;;8.50;3.30;;;21.10;99.90;;;;;;5049713;28;20043;-81
2023/08/22 08:33:27;;;;;;;5.80;3.17;;;21.20;99.90;;;;;;5033256;28;20045;-82
2023/08/22 08:35:53;;;;;;;5.32;3.17;;;21.30;99.90;;;;;;5020200;28;20044;-82
2023/08/22 08:38:19;;;;;;;7.38;3.42;;;21.40;99.90;;;;;;5020465;28;20033;-82
2023/08/22 08:40:46;;;;;;;7.05;3.03;;;21.40;99.90;;;;;;5033607;28;20591;-81
2023/08/22 08:43:11;;;;;;;7.70;3.67;;;21.50;99.90;;;;;;5033338;28;20163;-81
2023/08/22 08:45:39;;;;;;;4.82;3.08;;;21.50;99.90;;;;;;5049664;28;20163;-81
2023/08/22 08:48:06;;;;;;;4.60;3.50;;;21.60;99.90;;;;;;5051843;28;20057;-82
2023/08/22 08:50:33;;;;;;;5.60;3.47;;;21.70;99.90;;;;;;5042880;28;20048;-82
2023/08/22 08:52:59;;;;;;;6.55;3.30;;;21.80;99.90;;;;;;5063781;28;20044;-82
2023/08/22 08:55:25;;;;;;;4.45;3.05;;;21.80;99.90;;;;;;5018687;28;20120;-82
2023/08/22 08:57:56;;;;;;;4.50;2.88;;;21.80;99.90;;;;;;5064472;28;20120;-82
2023/08/22 09:00:22;;;;;;;4.72;2.90;;;21.80;99.90;;;;;;5033653;28;20040;-83
2023/08/22 09:02:48;;;;;;;4.07;3.00;;;21.70;99.90;;;;;;5033543;28;20044;-83
2023/08/22 09:05:15;;;;;;;4.40;3.00;;;21.70;99.90;;;;;;5036488;28;20524;-82
2023/08/22 09:07:43;;;;;;;5.43;2.63;;;21.70;99.90;;;;;;5053565;28;20097;-83
2023/08/22 09:10:09;;;;;;;4.20;2.20;;;21.80;99.90;;;;;;5060712;28;20573;-82
2023/08/22 09:12:36;;;;;;;4.35;2.50;;;21.90;99.90;;;;;;5001125;28;20425;-82
2023/08/22 09:15:02;;;;;;;3.97;2.42;;;21.80;99.90;;;;;;5044973;28;20099;-83
2023/08/22 09:17:30;;;;;;;4.45;2.63;;;21.90;99.90;;;;;;5062957;28;20655;-82
2023/08/22 09:19:56;;;;;;;3.88;2.47;;;21.90;99.90;;;;;;5039635;28;20087;-82
2023/08/22 09:22:31;;;;;;;4.40;2.97;;;21.90;99.90;;;;;;5042405;28;20037;-83
2023/08/22 09:24:57;;;;;;;5.03;2.53;;;21.90;99.90;;;;;;5036266;28;20773;-83
2023/08/22 09:27:27;;;;;;;4.03;2.42;;;22.10;99.90;;;;;;5053079;28;20045;-83
2023/08/22 09:29:59;;;;;;;5.60;2.65;;;22.10;99.90;;;;;;5050895;28;20102;-82
2023/08/22 09:32:25;;;;;;;3.85;2.33;;;22.10;99.90;;;;;;5056154;28;20115;-81
2023/08/22 09:34:56;;;;;;;3.75;2.88;;;22.20;99.90;;;;;;5052850;28;20133;-82
2023/08/22 09:37:30;;;;;;;3.38;2.17;;;22.30;99.90;;;;;;5039769;28;20132;-82
2023/08/22 09:39:56;;;;;;;4.35;2.67;;;22.60;99.90;;;;;;5052607;28;20045;-82
2023/08/22 09:42:25;;;;;;;5.70;2.58;;;22.70;99.90;;;;;;5042376;28;20051;-82
2023/08/22 09:44:52;;;;;;;3.63;1.90;;;22.90;99.90;;;;;;5053860;28;20194;-81
2023/08/22 09:47:18;;;;;;;4.65;1.90;;;23.00;99.90;;;;;;5046877;28;20044;-84
2023/08/22 09:49:49;;;;;;;4.38;1.80;;;23.10;99.90;;;;;;5046839;28;20123;-81
2023/08/22 09:52:15;;;;;;;3.83;1.60;;;23.30;99.90;;;;;;5072429;28;20048;-81
2023/08/22 09:54:43;;;;;;;2.70;1.40;;;23.30;99.90;;;;;;5069805;28;20701;-81
2023/08/22 09:57:10;;;;;;;2.47;1.60;;;23.20;99.90;;;;;;5059347;28;20120;-82
2023/08/22 09:59:37;;;;;;;3.67;1.83;;;23.20;99.90;;;;;;5034679;28;20036;-82
2023/08/22 10:02:05;;;;;;;4.32;1.63;;;23.20;99.90;;;;;;5031340;28;20037;-82
2023/08/22 10:04:32;;;;;;;4.20;2.20;;;23.10;99.90;;;;;;5054600;28;20106;-82
2023/08/22 10:06:57;;;;;;;2.58;1.48;;;23.10;99.90;;;;;;5052991;28;20093;-82
2023/08/22 10:09:23;;;;;;;2.88;1.52;;;23.10;99.90;;;;;;5018992;28;20036;-81
2023/08/22 10:11:55;;;;;;;3.53;1.88;;;23.00;99.90;;;;;;5029211;28;20041;-81
2023/08/22 10:14:29;;;;;;;3.08;1.80;;;23.00;99.90;;;;;;5054533;28;20032;-81
2023/08/22 10:16:55;;;;;;;3.78;1.90;;;23.00;99.90;;;;;;5034928;28;20392;-82
2023/08/22 10:19:23;;;;;;;3.58;2.10;;;23.00;99.90;;;;;;5035286;28;20400;-81
2023/08/22 10:21:49;;;;;;;2.33;1.67;;;23.10;99.90;;;;;;5032468;28;20639;-82
2023/08/22 10:24:28;;;;;;;1.80;1.48;;;23.30;99.90;;;;;;5035596;28;20029;-82
2023/08/22 10:27:05;;;;;;;3.85;1.90;;;23.40;99.90;;;;;;5053640;28;20041;-82
2023/08/22 10:29:33;;;;;;;2.00;1.80;;;23.50;99.90;;;;;;5045092;28;20041;-81
2023/08/22 10:32:02;;;;;;;3.78;1.90;;;23.70;99.90;;;;;;5038284;28;20095;-82
2023/08/22 10:34:34;;;;;;;7.45;2.28;;;23.90;99.90;;;;;;5059880;28;20041;-81
2023/08/22 10:37:01;;;;;;;3.78;1.80;;;24.10;99.90;;;;;;5037278;28;20122;-81
2023/08/22 10:39:38;;;;;;;3.97;2.10;;;24.10;99.90;;;;;;5042845;28;20083;-82
2023/08/22 10:42:04;;;;;;;2.95;1.88;;;24.20;99.90;;;;;;5066252;28;20463;-82
2023/08/22 10:44:30;;;;;;;4.55;1.92;;;24.20;99.90;;;;;;5046432;28;20393;-82
2023/08/22 10:47:16;;;;;;;3.38;1.83;;;24.20;99.90;;;;;;5059802;28;20044;-81
2023/08/22 10:49:43;;;;;;;2.65;1.85;;;24.40;99.90;;;;;;5039628;28;20044;-81
2023/08/22 10:52:12;;;;;;;4.78;2.08;;;24.50;99.90;;;;;;5042613;28;20488;-81
2023/08/22 10:55:00;;;;;;;4.35;1.98;;;24.60;99.90;;;;;;5057955;28;20435;-82
2023/08/22 10:57:55;;;;;;;3.88;1.95;;;24.60;99.90;;;;;;5026782;28;20560;-82
2023/08/22 11:00:22;;;;;;;4.32;2.55;;;24.50;99.90;;;;;;5032402;28;20121;-82
2023/08/22 11:02:51;;;;;;;3.92;2.00;;;24.60;99.90;;;;;;5064509;28;20486;-82
2023/08/22 11:05:17;;;;;;;3.75;2.50;;;24.70;99.90;;;;;;5049043;28;20052;-82
2023/08/22 11:07:48;;;;;;;4.82;2.40;;;24.70;99.90;;;;;;5050571;28;20075;-83
2023/08/22 11:10:18;;;;;;;4.10;2.45;;;24.70;99.90;;;;;;5051633;28;20040;-82
2023/08/22 11:12:45;;;;;;;3.28;2.20;;;24.70;99.90;;;;;;5038231;28;20542;-82
2023/08/22 11:15:12;;;;;;;4.18;2.42;;;24.60;99.90;;;;;;5041711;28;20037;-82
2023/08/22 11:17:40;;;;;;;2.75;2.10;;;24.70;99.90;;;;;;5055370;28;20080;-81
2023/08/22 11:20:17;;;;;;;3.38;2.30;;;24.70;99.90;;;;;;5050607;28;20118;-82
2023/08/22 11:22:44;;;;;;;5.15;2.60;;;24.90;99.90;;;;;;5055842;28;20087;-81
2023/08/22 11:25:13;;;;;;;4.47;2.15;;;24.90;99.90;;;;;;5050445;28;20052;-82
2023/08/22 11:27:40;;;;;;;3.17;1.98;;;25.00;99.90;;;;;;5016128;28;20492;-81
2023/08/22 11:30:08;;;;;;;4.47;1.85;;;25.10;99.90;;;;;;5050251;28;20040;-82
2023/08/22 11:32:36;;;;;;;4.40;1.73;;;25.20;99.90;;;;;;5035700;28;20550;-82
2023/08/22 11:35:06;;;;;;;2.72;1.52;;;25.20;99.90;;;;;;5055981;28;20045;-81
2023/08/22 11:37:40;;;;;;;3.72;1.67;;;25.20;99.90;;;;;;5036617;28;20692;-82
2023/08/22 11:40:10;;;;;;;3.22;1.38;;;25.20;99.90;;;;;;5039974;28;20465;-82
2023/08/22 11:42:37;;;;;;;2.47;1.50;;;25.30;99.90;;;;;;5046746;28;20037;-82
2023/08/22 11:45:10;;;;;;;3.80;1.65;;;25.30;99.90;;;;;;5033022;28;20047;-82
2023/08/22 11:47:47;;;;;;;2.60;1.30;;;25.40;99.90;;;;;;5034083;28;20673;-82
2023/08/22 11:50:17;;;;;;;3.58;1.60;;;25.40;99.90;;;;;;5035440;28;20059;-82
2023/08/22 11:52:55;;;;;;;3.33;1.40;;;25.40;99.90;;;;;;5041141;28;20048;-83
2023/08/22 11:55:26;;;;;;;2.88;1.10;;;25.40;99.90;;;;;;5050223;28;20112;-82
2023/08/22 11:58:05;;;;;;;1.63;0.97;;;25.40;99.90;;;;;;5050512;28;20444;-82
2023/08/22 12:00:32;;;;;;;3.92;1.15;;;25.50;99.90;;;;;;5021974;28;20619;-82
2023/08/22 12:02:59;;;;;;;5.72;1.30;;;25.50;99.90;;;;;;5034224;28;20040;-81
2023/08/22 12:05:40;;;;;;;2.10;1.00;;;25.50;99.90;;;;;;5060108;28;20047;-83
2023/08/22 12:08:05;;;;;;;4.07;1.20;;;25.50;99.90;;;;;;5054631;28;20113;-82
2023/08/22 12:10:39;;;;;;;2.20;1.20;;;25.50;99.90;;;;;;5065465;28;20037;-82
2023/08/22 12:13:05;;;;;;;2.70;1.20;;;25.60;99.90;;;;;;5040402;28;20094;-82
2023/08/22 12:15:31;;;;;;;2.13;1.17;;;25.70;99.90;;;;;;5023835;28;20493;-82
2023/08/22 12:18:01;;;;;;;2.08;1.42;;;25.80;99.90;;;;;;5034603;28;20384;-81
2023/08/22 12:20:27;;;;;;;1.98;0.93;;;25.70;99.90;;;;;;5054164;28;20048;-82
2023/08/22 12:22:53;;;;;;;1.52;1.00;;;25.80;99.90;;;;;;5046101;28;20091;-82
2023/08/22 12:25:19;;;;;;;1.60;0.90;;;25.80;99.90;;;;;;5034148;28;20048;-82
2023/08/22 12:27:45;;;;;;;2.63;1.05;;;25.90;99.90;;;;;;5033332;28;20037;-81
2023/08/22 12:30:11;;;;;;;1.92;1.02;;;25.90;99.90;;;;;;5033624;28;20060;-83
2023/08/22 12:32:37;;;;;;;2.78;0.88;;;26.00;99.90;;;;;;5016957;28;20045;-82
2023/08/22 12:35:06;;;;;;;1.63;0.80;;;26.00;99.30;;;;;;5033201;28;20068;-82
2023/08/22 12:37:32;;;;;;;3.42;0.75;;;25.90;98.90;;;;;;5000164;28;20122;-81
2023/08/22 12:39:58;;;;;;;1.55;0.90;;;25.90;96.70;;;;;;5035997;28;20040;-82
2023/08/22 12:42:24;;;;;;;1.40;0.98;;;25.90;95.10;;;;;;5019126;28;20056;-81